createdAt,value
2023-03-11T00:01:26.634Z,98389.72
2023-03-11T00:03:54.444Z,98403.91
2023-03-11T00:06:23.588Z,98410.19
2023-03-11T00:08:52.252Z,98420.16
2023-03-11T00:11:22.420Z,98438.47
2023-03-11T00:13:50.283Z,98451.56
2023-03-11T00:16:18.128Z,98464.19
2023-03-11T00:18:46.199Z,98468.59
2023-03-11T00:21:16.992Z,98484.75
2023-03-11T00:23:46.447Z,98487.94
2023-03-11T00:26:14.324Z,98490.34
2023-03-11T00:28:42.067Z,98496.28
2023-03-11T00:31:12.405Z,98498.81
2023-03-11T00:33:40.425Z,98507.88
2023-03-11T00:36:08.971Z,98511.50
2023-03-11T00:38:36.857Z,98515.44
2023-03-11T00:41:06.149Z,98518.03
2023-03-11T00:43:34.167Z,98525.22
2023-03-11T00:46:02.129Z,98536.50
2023-03-11T00:48:29.982Z,98531.66
2023-03-11T00:50:58.000Z,98538.69
2023-03-11T00:53:25.793Z,98540.38
2023-03-11T00:55:53.634Z,98551.38
2023-03-11T00:58:27.193Z,98548.63
2023-03-11T01:00:56.988Z,98558.69
2023-03-11T01:03:24.872Z,98556.09
2023-03-11T01:05:53.236Z,98567.09
2023-03-11T01:08:21.010Z,98567.38
2023-03-11T01:10:48.844Z,98584.69
2023-03-11T01:13:16.766Z,98584.16
2023-03-11T01:15:45.992Z,98604.53
2023-03-11T01:18:14.036Z,98607.00
2023-03-11T01:20:41.898Z,98610.28
2023-03-11T01:23:10.552Z,98620.59
2023-03-11T01:25:38.470Z,98628.75
2023-03-11T01:28:08.152Z,98634.50
2023-03-11T01:30:37.545Z,98642.09
2023-03-11T01:33:07.773Z,98651.16
2023-03-11T01:35:36.123Z,98658.47
2023-03-11T01:38:03.961Z,98673.88
2023-03-11T01:40:33.381Z,98673.59
2023-03-11T01:43:07.749Z,98691.47
2023-03-11T01:45:42.631Z,98694.38
2023-03-11T01:48:13.878Z,98694.09
2023-03-11T01:50:43.986Z,98705.25
2023-03-11T01:53:12.567Z,98705.09
2023-03-11T01:55:41.823Z,98718.44
2023-03-11T01:58:13.414Z,98724.47
2023-03-11T02:00:43.503Z,98737.28
2023-03-11T02:03:17.142Z,98739.88
2023-03-11T02:05:45.108Z,98755.56
2023-03-11T02:08:12.936Z,98756.16
2023-03-11T02:10:42.211Z,98758.75
2023-03-11T02:13:10.562Z,98776.66
2023-03-11T02:15:40.074Z,98782.84
2023-03-11T02:18:08.662Z,98792.47
2023-03-11T02:20:43.938Z,98803.22
2023-03-11T02:23:14.332Z,98808.03
2023-03-11T02:25:46.814Z,98818.31
2023-03-11T02:28:17.502Z,98837.19
2023-03-11T02:30:45.574Z,98851.78
2023-03-11T02:33:14.606Z,98859.06
2023-03-11T02:35:43.712Z,98873.34
2023-03-11T02:38:11.715Z,98874.31
2023-03-11T02:40:51.659Z,98884.38
2023-03-11T02:43:26.136Z,98893.56
2023-03-11T02:45:54.876Z,98897.56
2023-03-11T02:48:23.184Z,98906.13
2023-03-11T02:50:51.169Z,98916.81
2023-03-11T02:53:20.553Z,98925.94
2023-03-11T02:55:48.479Z,98939.28
2023-03-11T02:58:16.235Z,98941.03
2023-03-11T03:00:45.420Z,98954.66
2023-03-11T03:03:13.205Z,98965.81
2023-03-11T03:05:41.542Z,98969.66
2023-03-11T03:08:09.502Z,98987.53
2023-03-11T03:10:37.326Z,98993.03
2023-03-11T03:13:05.402Z,98996.22
2023-03-11T03:15:33.365Z,99001.00
2023-03-11T03:18:03.209Z,99001.56
2023-03-11T03:20:30.963Z,99018.09
2023-03-11T03:23:01.850Z,99028.81
2023-03-11T03:25:32.260Z,99043.53
2023-03-11T03:28:04.468Z,99051.50
2023-03-11T03:30:35.137Z,99067.06
2023-03-11T03:33:04.564Z,99079.44
2023-03-11T03:35:33.316Z,99082.31
2023-03-11T03:38:06.053Z,99091.50
2023-03-11T03:40:34.492Z,99102.06
2023-03-11T03:43:05.174Z,99122.25
2023-03-11T03:45:34.395Z,99132.47
2023-03-11T03:48:03.938Z,99141.03
2023-03-11T03:50:35.014Z,99142.22
2023-03-11T03:53:03.116Z,99161.47
2023-03-11T03:55:30.992Z,99164.44
2023-03-11T03:57:59.991Z,99181.75
2023-03-11T04:00:32.738Z,99176.78
2023-03-11T04:03:04.785Z,99185.47
2023-03-11T04:05:40.801Z,99202.09
2023-03-11T04:08:08.834Z,99209.44
2023-03-11T04:10:36.674Z,99204.34
2023-03-11T04:13:05.234Z,99218.34
2023-03-11T04:15:33.676Z,99220.41
2023-03-11T04:18:01.810Z,99233.09
2023-03-11T04:20:31.252Z,99228.81
2023-03-11T04:22:59.191Z,99239.63
2023-03-11T04:25:27.055Z,99247.38
2023-03-11T04:27:55.209Z,99256.03
2023-03-11T04:30:24.134Z,99257.81
2023-03-11T04:32:56.403Z,99260.44
2023-03-11T04:35:24.922Z,99268.38
2023-03-11T04:37:54.227Z,99272.66
2023-03-11T04:40:22.917Z,99283.13
2023-03-11T04:42:50.771Z,99303.78
2023-03-11T04:45:18.977Z,99301.44
2023-03-11T04:47:49.606Z,99313.03
2023-03-11T04:50:17.935Z,99317.69
2023-03-11T04:52:46.199Z,99318.72
2023-03-11T04:55:16.220Z,99322.91
2023-03-11T04:57:44.804Z,99335.63
2023-03-11T05:00:16.598Z,99333.38
2023-03-11T05:02:48.810Z,99352.00
2023-03-11T05:05:16.776Z,99352.97
2023-03-11T05:07:44.872Z,99367.44
2023-03-11T05:10:22.107Z,99371.72
2023-03-11T05:12:52.241Z,99375.91
2023-03-11T05:15:21.491Z,99385.28
2023-03-11T05:17:49.311Z,99399.44
2023-03-11T05:20:17.702Z,99402.75
2023-03-11T05:22:46.018Z,99415.47
2023-03-11T05:25:15.589Z,99406.78
2023-03-11T05:27:44.203Z,99433.53
2023-03-11T05:30:13.494Z,99433.75
2023-03-11T05:32:42.744Z,99443.50
2023-03-11T05:35:10.792Z,99442.78
2023-03-11T05:37:39.282Z,99457.66
2023-03-11T05:40:09.118Z,99460.13
2023-03-11T05:42:41.697Z,99479.63
2023-03-11T05:45:11.718Z,99474.75
2023-03-11T05:47:42.344Z,99475.59
2023-03-11T05:50:12.921Z,99484.84
2023-03-11T05:52:42.178Z,99486.75
2023-03-11T05:55:12.225Z,99497.44
2023-03-11T05:57:43.305Z,99509.34
2023-03-11T06:00:12.849Z,99506.72
2023-03-11T06:02:48.831Z,99508.50
2023-03-11T06:05:19.414Z,99524.81
2023-03-11T06:07:49.324Z,99533.59
2023-03-11T06:10:17.358Z,99535.16
2023-03-11T06:12:46.497Z,99538.81
2023-03-11T06:15:23.068Z,99542.28
2023-03-11T06:17:51.302Z,99555.25
2023-03-11T06:20:19.431Z,99556.88
2023-03-11T06:22:49.268Z,99554.13
2023-03-11T06:25:19.370Z,99557.13
2023-03-11T06:27:53.200Z,99561.03
2023-03-11T06:30:22.336Z,99569.72
2023-03-11T06:32:59.960Z,99570.91
2023-03-11T06:35:28.010Z,99584.00
2023-03-11T06:37:56.724Z,99580.28
2023-03-11T06:40:24.492Z,99595.53
2023-03-11T06:42:53.627Z,99595.75
2023-03-11T06:45:24.594Z,99599.22
2023-03-11T06:47:53.580Z,99612.50
2023-03-11T06:50:23.924Z,99625.13
2023-03-11T06:52:52.691Z,99627.03
2023-03-11T06:55:21.114Z,99637.44
2023-03-11T06:57:48.962Z,99638.91
2023-03-11T07:00:19.135Z,99651.50
2023-03-11T07:02:52.873Z,99655.31
2023-03-11T07:05:21.590Z,99668.19
2023-03-11T07:07:54.740Z,99676.22
2023-03-11T07:10:24.041Z,99680.63
2023-03-11T07:12:52.253Z,99679.22
2023-03-11T07:15:21.707Z,99682.91
2023-03-11T07:17:49.527Z,99702.88
2023-03-11T07:20:18.953Z,99701.91
2023-03-11T07:22:46.952Z,99703.31
2023-03-11T07:25:14.873Z,99716.75
2023-03-11T07:27:42.683Z,99718.06
2023-03-11T07:30:14.547Z,99719.31
2023-03-11T07:32:44.051Z,99742.00
2023-03-11T07:35:11.894Z,99750.78
2023-03-11T07:37:39.683Z,99756.59
2023-03-11T07:40:09.077Z,99759.28
2023-03-11T07:42:36.892Z,99768.31
2023-03-11T07:45:05.213Z,99767.13
2023-03-11T07:47:33.061Z,99783.13
2023-03-11T07:50:02.172Z,99781.22
2023-03-11T07:52:31.438Z,99794.53
2023-03-11T07:54:59.468Z,99785.50
2023-03-11T07:57:27.310Z,99800.28
2023-03-11T07:59:55.128Z,99803.59
2023-03-11T08:02:22.876Z,99809.69
2023-03-11T08:04:50.710Z,99812.69
2023-03-11T08:07:20.667Z,99811.34
2023-03-11T08:09:48.432Z,99830.78
2023-03-11T08:12:17.056Z,99834.22
2023-03-11T08:14:45.057Z,99846.38
2023-03-11T08:17:13.112Z,99851.84
2023-03-11T08:19:40.936Z,99850.19
2023-03-11T08:22:08.820Z,99862.00
2023-03-11T08:24:37.927Z,99865.66
2023-03-11T08:27:05.994Z,99868.94
2023-03-11T08:29:33.834Z,99874.50
2023-03-11T08:32:01.699Z,99877.78
2023-03-11T08:34:29.493Z,99876.97
2023-03-11T08:36:57.381Z,99881.84
2023-03-11T08:39:25.167Z,99878.69
2023-03-11T08:41:54.336Z,99890.06
2023-03-11T08:44:22.166Z,99891.22
2023-03-11T08:46:50.125Z,99903.47
2023-03-11T08:49:18.000Z,99910.84
2023-03-11T08:51:45.802Z,99921.66
2023-03-11T08:54:13.646Z,99931.81
2023-03-11T08:56:41.678Z,99931.50
2023-03-11T08:59:10.973Z,99927.28
2023-03-11T09:01:38.738Z,99949.16
2023-03-11T09:04:06.760Z,99946.06
2023-03-11T09:06:34.615Z,99944.75
2023-03-11T09:09:02.468Z,99950.66
2023-03-11T09:11:30.704Z,99952.94
2023-03-11T09:13:58.517Z,99961.28
2023-03-11T09:16:27.868Z,99965.34
2023-03-11T09:18:55.814Z,99971.66
2023-03-11T09:21:23.807Z,99969.63
2023-03-11T09:23:51.629Z,99969.84
2023-03-11T09:26:19.607Z,99977.03
2023-03-11T09:28:49.192Z,99976.06
2023-03-11T09:31:17.561Z,99977.75
2023-03-11T09:33:47.185Z,99991.22
2023-03-11T09:36:19.554Z,99987.16
2023-03-11T09:38:52.085Z,99993.00
2023-03-11T09:41:29.835Z,100003.97
2023-03-11T09:44:06.394Z,99996.38
2023-03-11T09:46:52.024Z,100011.38
2023-03-11T09:49:27.089Z,100019.22
2023-03-11T09:51:59.426Z,100018.47
2023-03-11T09:54:30.547Z,100010.63
2023-03-11T09:56:58.450Z,100029.16
2023-03-11T09:59:30.447Z,100040.09
2023-03-11T10:01:58.606Z,100049.66
2023-03-11T10:04:29.930Z,100042.97
2023-03-11T10:06:58.575Z,100045.97
2023-03-11T10:09:34.810Z,100039.59
2023-03-11T10:12:18.888Z,100054.81
2023-03-11T10:14:58.653Z,100060.41
2023-03-11T10:17:45.016Z,100058.00
2023-03-11T10:20:19.345Z,100059.72
2023-03-11T10:22:53.657Z,100063.81
2023-03-11T10:25:24.883Z,100076.41
2023-03-11T10:27:55.532Z,100070.22
2023-03-11T10:30:27.368Z,100074.56
2023-03-11T10:32:58.582Z,100086.47
2023-03-11T10:35:32.471Z,100089.19
2023-03-11T10:38:04.705Z,100085.59
2023-03-11T10:40:33.962Z,100093.47
2023-03-11T10:43:04.520Z,100094.47
2023-03-11T10:45:38.326Z,100102.22
2023-03-11T10:48:10.267Z,100105.59
2023-03-11T10:50:47.474Z,100105.41
2023-03-11T10:53:17.440Z,100100.41
2023-03-11T10:55:47.987Z,100106.25
2023-03-11T10:58:18.154Z,100102.06
2023-03-11T11:00:46.393Z,100109.47
2023-03-11T11:03:21.686Z,100114.00
2023-03-11T11:06:00.966Z,100116.84
2023-03-11T11:08:29.415Z,100112.34
2023-03-11T11:10:58.793Z,100113.31
2023-03-11T11:13:27.552Z,100110.88
2023-03-11T11:15:58.386Z,100118.78
2023-03-11T11:18:28.751Z,100127.63
2023-03-11T11:21:02.081Z,100120.31
2023-03-11T11:23:34.798Z,100132.81
2023-03-11T11:26:04.665Z,100130.69
2023-03-11T11:28:33.689Z,100134.41
2023-03-11T11:31:03.706Z,100134.31
2023-03-11T11:33:33.003Z,100127.66
2023-03-11T11:36:04.171Z,100136.34
2023-03-11T11:38:33.124Z,100137.25
2023-03-11T11:41:03.870Z,100137.28
2023-03-11T11:43:45.329Z,100142.19
2023-03-11T11:46:20.953Z,100137.63
2023-03-11T11:48:56.555Z,100145.09
2023-03-11T11:51:29.959Z,100138.19
2023-03-11T11:54:02.178Z,100152.06
2023-03-11T11:56:30.356Z,100140.94
2023-03-11T11:58:58.212Z,100150.31
2023-03-11T12:01:35.857Z,100145.41
2023-03-11T12:04:22.316Z,100152.47
2023-03-11T12:06:57.971Z,100150.91
2023-03-11T12:09:31.507Z,100149.28
2023-03-11T12:12:08.937Z,100154.81
2023-03-11T12:14:38.284Z,100151.69
2023-03-11T12:17:06.323Z,100156.28
2023-03-11T12:19:37.786Z,100160.53
2023-03-11T12:22:30.296Z,100165.72
2023-03-11T12:25:09.742Z,100169.53
2023-03-11T12:27:43.053Z,100162.94
2023-03-11T12:30:15.532Z,100167.38
2023-03-11T12:32:45.747Z,100170.00
2023-03-11T12:35:22.386Z,100170.97
2023-03-11T12:37:58.761Z,100172.63
2023-03-11T12:40:50.075Z,100183.50
2023-03-11T12:44:11.375Z,100180.81
2023-03-11T12:47:02.536Z,100185.16
2023-03-11T12:49:31.566Z,100182.41
2023-03-11T12:52:03.831Z,100192.53
2023-03-11T12:54:34.469Z,100185.63
2023-03-11T12:57:03.077Z,100189.91
2023-03-11T13:00:07.795Z,100199.97
2023-03-11T13:03:01.750Z,100195.16
2023-03-11T13:05:32.694Z,100192.56
2023-03-11T13:08:02.049Z,100197.44
2023-03-11T13:10:39.980Z,100210.47
2023-03-11T13:13:39.364Z,100203.75
2023-03-11T13:16:37.481Z,100200.19
2023-03-11T13:19:36.051Z,100206.38
2023-03-11T13:22:05.733Z,100216.25
2023-03-11T13:24:51.075Z,100221.16
2023-03-11T13:27:32.847Z,100211.44
2023-03-11T13:30:05.345Z,100223.75
2023-03-11T13:35:47.250Z,100229.13
2023-03-11T13:38:30.108Z,100238.91
2023-03-11T13:40:58.186Z,100236.22
2023-03-11T13:43:27.578Z,100237.19
2023-03-11T13:45:58.812Z,100243.53
2023-03-11T13:48:29.829Z,100250.72
2023-03-11T13:51:01.312Z,100250.88
2023-03-11T13:53:31.266Z,100263.84
2023-03-11T13:55:59.073Z,100258.91
2023-03-11T13:58:29.346Z,100257.50
2023-03-11T14:00:58.530Z,100266.81
2023-03-11T14:03:27.922Z,100262.06
2023-03-11T14:06:01.780Z,100264.34
2023-03-11T14:08:31.739Z,100274.22
2023-03-11T14:11:00.676Z,100275.69
2023-03-11T14:13:30.614Z,100272.69
2023-03-11T14:16:04.909Z,100282.38
2023-03-11T14:18:38.553Z,100284.75
2023-03-11T14:21:08.800Z,100285.88
2023-03-11T14:23:43.441Z,100286.59
2023-03-11T14:26:15.082Z,100283.94
2023-03-11T14:28:45.722Z,100284.31
2023-03-11T14:31:25.497Z,100287.34
2023-03-11T14:34:04.235Z,100290.19
2023-03-11T14:36:40.508Z,100290.81
2023-03-11T14:39:23.697Z,100296.16
2023-03-11T14:41:52.490Z,100294.91
2023-03-11T14:44:22.521Z,100299.22
2023-03-11T14:46:50.964Z,100291.66
2023-03-11T14:49:21.912Z,100307.22
2023-03-11T14:51:54.974Z,100303.38
2023-03-11T14:54:25.614Z,100304.44
2023-03-11T14:57:05.448Z,100303.22
2023-03-11T14:59:35.748Z,100304.50
2023-03-11T15:02:23.527Z,100311.00
2023-03-11T15:04:51.678Z,100314.97
2023-03-11T15:07:20.184Z,100312.91
2023-03-11T15:09:48.198Z,100312.19
2023-03-11T15:12:32.468Z,100308.19
2023-03-11T15:15:01.759Z,100308.31
2023-03-11T15:17:42.580Z,100313.97
2023-03-11T15:20:25.296Z,100318.25
2023-03-11T15:22:58.139Z,100308.84
2023-03-11T15:25:25.974Z,100302.50
2023-03-11T15:27:56.352Z,100322.81
2023-03-11T15:30:27.741Z,100318.50
2023-03-11T15:32:56.386Z,100322.34
2023-03-11T15:35:26.612Z,100326.03
2023-03-11T15:38:13.404Z,100333.38
2023-03-11T15:40:45.680Z,100320.13
2023-03-11T15:43:32.327Z,100322.91
2023-03-11T15:46:03.486Z,100334.16
2023-03-11T15:48:31.515Z,100339.78
2023-03-11T15:51:00.756Z,100345.91
2023-03-11T15:53:30.106Z,100339.59
2023-03-11T15:56:06.602Z,100338.16
2023-03-11T15:58:35.546Z,100353.38
2023-03-11T16:01:04.964Z,100350.94
2023-03-11T16:03:33.256Z,100350.94
2023-03-11T16:06:01.361Z,100352.41
2023-03-11T16:08:29.221Z,100353.97
2023-03-11T16:10:58.003Z,100351.38
2023-03-11T16:13:25.831Z,100363.41
2023-03-11T16:15:54.064Z,100367.66
2023-03-11T16:18:23.343Z,100363.03
2023-03-11T16:20:53.247Z,100369.97
2023-03-11T16:23:23.514Z,100381.50
2023-03-11T16:25:51.685Z,100382.63
2023-03-11T16:28:19.464Z,100380.91
2023-03-11T16:30:48.339Z,100382.81
2023-03-11T16:33:16.324Z,100383.31
2023-03-11T16:35:45.785Z,100390.69
2023-03-11T16:38:13.680Z,100401.94
2023-03-11T16:40:46.029Z,100409.00
2023-03-11T16:43:24.518Z,100401.25
2023-03-11T16:45:53.802Z,100413.25
2023-03-11T16:48:21.755Z,100413.47
2023-03-11T16:50:51.247Z,100417.34
2023-03-11T16:53:19.239Z,100418.72
2023-03-11T16:55:48.135Z,100425.41
2023-03-11T16:58:16.366Z,100416.59
2023-03-11T17:00:44.914Z,100424.06
2023-03-11T17:03:13.111Z,100429.72
2023-03-11T17:05:41.400Z,100429.00
2023-03-11T17:08:10.915Z,100431.00
2023-03-11T17:10:40.063Z,100428.28
2023-03-11T17:13:08.434Z,100431.94
2023-03-11T17:15:37.945Z,100440.03
2023-03-11T17:18:05.923Z,100445.47
2023-03-11T17:20:34.254Z,100448.72
2023-03-11T17:23:02.158Z,100452.50
2023-03-11T17:25:31.351Z,100457.44
2023-03-11T17:27:59.139Z,100455.97
2023-03-11T17:30:36.413Z,100460.91
2023-03-11T17:33:05.169Z,100457.53
2023-03-11T17:35:33.165Z,100460.66
2023-03-11T17:38:00.990Z,100458.38
2023-03-11T17:40:31.554Z,100459.31
2023-03-11T17:43:01.005Z,100462.34
2023-03-11T17:45:28.828Z,100461.94
2023-03-11T17:47:56.683Z,100462.56
2023-03-11T17:50:26.204Z,100478.41
2023-03-11T17:52:54.308Z,100469.47
2023-03-11T17:55:22.117Z,100469.06
2023-03-11T17:57:49.935Z,100469.91
2023-03-11T18:00:19.950Z,100469.50
2023-03-11T18:02:47.759Z,100478.47
2023-03-11T18:05:17.582Z,100477.00
2023-03-11T18:07:46.525Z,100474.38
2023-03-11T18:10:15.833Z,100474.59
2023-03-11T18:12:45.315Z,100481.41
2023-03-11T18:15:18.688Z,100483.50
2023-03-11T18:17:48.142Z,100476.59
2023-03-11T18:20:16.314Z,100486.25
2023-03-11T18:22:46.617Z,100493.38
2023-03-11T18:25:14.959Z,100488.50
2023-03-11T18:27:43.382Z,100498.16
2023-03-11T18:30:12.329Z,100493.53
2023-03-11T18:32:40.272Z,100500.88
2023-03-11T18:35:10.650Z,100499.41
2023-03-11T18:37:38.477Z,100493.44
2023-03-11T18:40:07.750Z,100500.72
2023-03-11T18:42:35.516Z,100490.19
2023-03-11T18:45:03.410Z,100503.91
2023-03-11T18:47:34.524Z,100501.56
2023-03-11T18:50:02.425Z,100507.75
2023-03-11T18:52:31.626Z,100511.31
2023-03-11T18:54:59.439Z,100504.50
2023-03-11T18:57:27.709Z,100502.06
2023-03-11T18:59:55.531Z,100506.28
2023-03-11T19:02:23.434Z,100512.75
2023-03-11T19:04:51.273Z,100508.34
2023-03-11T19:07:19.518Z,100498.91
2023-03-11T19:09:50.645Z,100499.03
2023-03-11T19:12:18.433Z,100506.22
2023-03-11T19:14:46.231Z,100510.53
2023-03-11T19:17:16.334Z,100509.50
2023-03-11T19:19:44.123Z,100514.84
2023-03-11T19:22:11.937Z,100506.03
2023-03-11T19:24:42.085Z,100520.09
2023-03-11T19:27:11.249Z,100520.44
2023-03-11T19:29:39.061Z,100515.69
2023-03-11T19:32:07.251Z,100522.13
2023-03-11T19:34:35.385Z,100523.16
2023-03-11T19:37:03.200Z,100516.91
2023-03-11T19:39:31.254Z,100506.63
2023-03-11T19:41:59.778Z,100506.31
2023-03-11T19:44:31.204Z,100517.72
2023-03-11T19:46:59.912Z,100521.28
2023-03-11T19:49:27.721Z,100524.94
2023-03-11T19:51:56.022Z,100522.88
2023-03-11T19:54:23.835Z,100523.16
2023-03-11T19:56:51.630Z,100520.84
2023-03-11T19:59:19.623Z,100524.00
2023-03-11T20:01:48.869Z,100515.41
2023-03-11T20:04:16.810Z,100511.84
2023-03-11T20:06:45.422Z,100517.09
2023-03-11T20:09:15.527Z,100520.84
2023-03-11T20:11:44.173Z,100515.31
2023-03-11T20:14:12.609Z,100520.75
2023-03-11T20:16:40.557Z,100519.72
2023-03-11T20:19:09.873Z,100521.41
2023-03-11T20:21:40.555Z,100513.94
2023-03-11T20:24:09.336Z,100502.22
2023-03-11T20:26:38.148Z,100522.53
2023-03-11T20:29:06.806Z,100517.28
2023-03-11T20:31:34.843Z,100510.38
2023-03-11T20:34:02.910Z,100520.84
2023-03-11T20:36:33.871Z,100524.41
2023-03-11T20:39:01.956Z,100522.53
2023-03-11T20:41:29.786Z,100525.16
2023-03-11T20:43:58.033Z,100535.72
2023-03-11T20:46:25.989Z,100529.44
2023-03-11T20:48:53.932Z,100535.44
2023-03-11T20:51:24.277Z,100535.53
2023-03-11T20:53:53.687Z,100525.78
2023-03-11T20:56:22.771Z,100526.72
2023-03-11T20:58:51.715Z,100533.75
2023-03-11T21:01:21.416Z,100538.34
2023-03-11T21:03:49.641Z,100531.13
2023-03-11T21:06:19.096Z,100531.13
2023-03-11T21:08:47.985Z,100526.94
2023-03-11T21:11:17.837Z,100531.31
2023-03-11T21:13:45.702Z,100533.22
2023-03-11T21:16:13.731Z,100534.06
2023-03-11T21:18:43.108Z,100534.16
2023-03-11T21:21:13.816Z,100523.88
2023-03-11T21:23:43.692Z,100530.97
2023-03-11T21:26:12.614Z,100530.38
2023-03-11T21:28:46.243Z,100529.84
2023-03-11T21:31:16.028Z,100524.41
2023-03-11T21:33:44.202Z,100524.63
2023-03-11T21:36:13.748Z,100526.66
2023-03-11T21:38:41.577Z,100514.13
2023-03-11T21:41:11.961Z,100532.63
2023-03-11T21:43:41.598Z,100522.84
2023-03-11T21:46:11.453Z,100515.81
2023-03-11T21:48:39.481Z,100532.56
2023-03-11T21:51:08.171Z,100518.97
2023-03-11T21:53:36.264Z,100514.13
2023-03-11T21:56:04.713Z,100515.63
2023-03-11T21:58:32.984Z,100507.75
2023-03-11T22:01:02.530Z,100508.91
2023-03-11T22:03:35.725Z,100508.69
2023-03-11T22:06:05.569Z,100512.06
2023-03-11T22:08:33.958Z,100516.34
2023-03-11T22:11:02.293Z,100514.13
2023-03-11T22:13:30.669Z,100521.06
2023-03-11T22:15:59.075Z,100519.38
2023-03-11T22:18:28.253Z,100509.94
2023-03-11T22:20:58.755Z,100516.03
2023-03-11T22:23:26.661Z,100508.34
2023-03-11T22:25:54.638Z,100505.91
2023-03-11T22:28:22.481Z,100506.44
2023-03-11T22:30:50.329Z,100517.69
2023-03-11T22:33:18.145Z,100510.22
2023-03-11T22:35:52.124Z,100511.06
2023-03-11T22:38:19.987Z,100519.66
2023-03-11T22:40:48.075Z,100513.47
2023-03-11T22:43:16.001Z,100517.13
2023-03-11T22:45:44.916Z,100510.31
2023-03-11T22:48:12.936Z,100516.38
2023-03-11T22:50:41.130Z,100520.34
2023-03-11T22:53:10.379Z,100520.16
2023-03-11T22:55:40.017Z,100521.09
2023-03-11T22:58:07.902Z,100524.75
2023-03-11T23:00:36.652Z,100524.53
2023-03-11T23:03:04.687Z,100523.81
2023-03-11T23:05:34.800Z,100525.00
2023-03-11T23:08:02.619Z,100520.72
2023-03-11T23:10:31.807Z,100519.69
2023-03-11T23:12:59.547Z,100519.78
2023-03-11T23:15:27.340Z,100517.34
2023-03-11T23:17:55.130Z,100522.38
2023-03-11T23:20:22.987Z,100518.88
2023-03-11T23:22:50.855Z,100518.88
2023-03-11T23:25:19.433Z,100519.50
2023-03-11T23:27:48.637Z,100519.78
2023-03-11T23:30:17.753Z,100521.84
2023-03-11T23:32:46.059Z,100526.88
2023-03-11T23:35:14.382Z,100527.19
2023-03-11T23:37:42.259Z,100525.50
2023-03-11T23:40:11.393Z,100523.72
2023-03-11T23:42:39.129Z,100528.00
2023-03-11T23:45:09.794Z,100537.84
2023-03-11T23:47:38.075Z,100535.13
2023-03-11T23:50:06.761Z,100539.53
2023-03-11T23:52:35.098Z,100536.81
2023-03-11T23:55:03.047Z,100526.44
2023-03-11T23:57:30.909Z,100535.97
2023-03-11T23:59:58.904Z,100536.47
